sensor_id;sensor_type;location;lat;lon;timestamp;pressure;altitude;pressure_sealevel;temperature;humidity
78483;BME280;67772;50.158;8.658;2023-02-28T00:02:13;101569.19;;;-0.22;64.98
78483;BME280;67772;50.158;8.658;2023-02-28T00:04:38;101562.34;;;-0.33;65.12
78483;BME280;67772;50.158;8.658;2023-02-28T00:07:03;101568.44;;;-0.42;65.07
78483;BME280;67772;50.158;8.658;2023-02-28T00:09:29;101574.84;;;-0.54;65.80
78483;BME280;67772;50.158;8.658;2023-02-28T00:11:54;101570.53;;;-0.55;65.91
78483;BME280;67772;50.158;8.658;2023-02-28T00:14:19;101570.44;;;-0.53;65.97
78483;BME280;67772;50.158;8.658;2023-02-28T00:16:44;101574.94;;;-0.46;65.80
78483;BME280;67772;50.158;8.658;2023-02-28T00:19:10;101566.97;;;-0.54;65.31
78483;BME280;67772;50.158;8.658;2023-02-28T00:21:38;101573.19;;;-0.64;66.14
78483;BME280;67772;50.158;8.658;2023-02-28T00:24:06;101577.91;;;-0.68;66.18
78483;BME280;67772;50.158;8.658;2023-02-28T00:26:31;101570.03;;;-0.68;66.18
78483;BME280;67772;50.158;8.658;2023-02-28T00:28:57;101567.28;;;-0.76;66.82
78483;BME280;67772;50.158;8.658;2023-02-28T00:31:22;101577.38;;;-0.81;66.75
78483;BME280;67772;50.158;8.658;2023-02-28T00:33:47;101575.59;;;-0.80;67.01
78483;BME280;67772;50.158;8.658;2023-02-28T00:36:13;101570.34;;;-0.90;67.27
78483;BME280;67772;50.158;8.658;2023-02-28T00:38:39;101576.88;;;-0.94;67.12
78483;BME280;67772;50.158;8.658;2023-02-28T00:41:06;101574.81;;;-1.00;67.76
78483;BME280;67772;50.158;8.658;2023-02-28T00:43:36;101574.09;;;-1.02;68.06
78483;BME280;67772;50.158;8.658;2023-02-28T00:46:02;101564.72;;;-0.95;67.71
78483;BME280;67772;50.158;8.658;2023-02-28T00:48:28;101577.28;;;-0.99;67.79
78483;BME280;67772;50.158;8.658;2023-02-28T00:50:53;101574.38;;;-1.05;67.77
78483;BME280;67772;50.158;8.658;2023-02-28T00:53:18;101578.22;;;-1.09;68.42
78483;BME280;67772;50.158;8.658;2023-02-28T00:55:44;101571.50;;;-1.12;68.51
78483;BME280;67772;50.158;8.658;2023-02-28T00:58:09;101571.34;;;-1.10;68.87
78483;BME280;67772;50.158;8.658;2023-02-28T01:00:34;101579.91;;;-1.08;69.01
78483;BME280;67772;50.158;8.658;2023-02-28T01:02:59;101571.06;;;-1.07;69.44
78483;BME280;67772;50.158;8.658;2023-02-28T01:05:25;101577.41;;;-0.91;68.83
78483;BME280;67772;50.158;8.658;2023-02-28T01:07:50;101570.81;;;-1.04;69.41
78483;BME280;67772;50.158;8.658;2023-02-28T01:10:16;101574.53;;;-1.07;70.15
78483;BME280;67772;50.158;8.658;2023-02-28T01:12:41;101564.44;;;-1.02;70.03
78483;BME280;67772;50.158;8.658;2023-02-28T01:15:06;101564.75;;;-1.14;70.25
78483;BME280;67772;50.158;8.658;2023-02-28T01:17:32;101569.84;;;-1.13;70.29
78483;BME280;67772;50.158;8.658;2023-02-28T01:19:57;101568.19;;;-1.14;70.18
78483;BME280;67772;50.158;8.658;2023-02-28T01:22:22;101562.00;;;-1.22;70.58
78483;BME280;67772;50.158;8.658;2023-02-28T01:24:48;101564.31;;;-1.19;70.61
78483;BME280;67772;50.158;8.658;2023-02-28T01:27:13;101562.28;;;-1.16;70.68
78483;BME280;67772;50.158;8.658;2023-02-28T01:29:38;101559.09;;;-1.29;71.29
78483;BME280;67772;50.158;8.658;2023-02-28T01:32:04;101562.94;;;-1.33;71.57
78483;BME280;67772;50.158;8.658;2023-02-28T01:34:29;101566.94;;;-1.38;71.48
78483;BME280;67772;50.158;8.658;2023-02-28T01:36:54;101554.25;;;-1.43;71.91
78483;BME280;67772;50.158;8.658;2023-02-28T01:39:20;101560.88;;;-1.48;72.19
78483;BME280;67772;50.158;8.658;2023-02-28T01:41:45;101559.78;;;-1.55;71.77
78483;BME280;67772;50.158;8.658;2023-02-28T01:47:13;101560.88;;;-1.58;72.57
78483;BME280;67772;50.158;8.658;2023-02-28T01:49:39;101565.16;;;-1.57;72.99
78483;BME280;67772;50.158;8.658;2023-02-28T01:52:05;101546.00;;;-1.57;72.94
78483;BME280;67772;50.158;8.658;2023-02-28T01:54:31;101553.03;;;-1.58;72.80
78483;BME280;67772;50.158;8.658;2023-02-28T01:57:03;101545.19;;;-1.58;72.87
78483;BME280;67772;50.158;8.658;2023-02-28T01:59:34;101549.31;;;-1.65;73.35
78483;BME280;67772;50.158;8.658;2023-02-28T02:02:01;101551.38;;;-1.68;73.78
78483;BME280;67772;50.158;8.658;2023-02-28T02:04:34;101546.84;;;-1.66;73.98
78483;BME280;67772;50.158;8.658;2023-02-28T02:07:02;101538.84;;;-1.74;73.94
78483;BME280;67772;50.158;8.658;2023-02-28T02:09:28;101543.66;;;-1.70;74.04
78483;BME280;67772;50.158;8.658;2023-02-28T02:11:55;101541.88;;;-1.69;74.10
78483;BME280;67772;50.158;8.658;2023-02-28T02:19:52;101541.88;;;-1.69;74.15
78483;BME280;67772;50.158;8.658;2023-02-28T02:22:50;101543.25;;;-1.75;74.41
78483;BME280;67772;50.158;8.658;2023-02-28T02:28:22;101544.31;;;-1.77;74.20
78483;BME280;67772;50.158;8.658;2023-02-28T02:31:10;101546.41;;;-1.81;74.18
78483;BME280;67772;50.158;8.658;2023-02-28T02:36:33;101533.72;;;-1.86;74.09
78483;BME280;67772;50.158;8.658;2023-02-28T02:41:54;101530.78;;;-2.02;74.46
78483;BME280;67772;50.158;8.658;2023-02-28T02:44:35;101532.75;;;-2.04;74.12
78483;BME280;67772;50.158;8.658;2023-02-28T02:47:08;101532.59;;;-2.02;74.57
78483;BME280;67772;50.158;8.658;2023-02-28T02:49:36;101539.88;;;-2.06;74.35
78483;BME280;67772;50.158;8.658;2023-02-28T02:52:07;101540.13;;;-2.09;74.64
78483;BME280;67772;50.158;8.658;2023-02-28T02:54:35;101536.13;;;-2.13;74.77
78483;BME280;67772;50.158;8.658;2023-02-28T02:57:08;101538.34;;;-2.18;74.44
78483;BME280;67772;50.158;8.658;2023-02-28T02:59:36;101548.91;;;-2.19;74.67
78483;BME280;67772;50.158;8.658;2023-02-28T03:02:06;101541.72;;;-2.27;74.80
78483;BME280;67772;50.158;8.658;2023-02-28T03:04:36;101547.78;;;-2.26;75.03
78483;BME280;67772;50.158;8.658;2023-02-28T03:07:03;101547.13;;;-2.19;74.62
78483;BME280;67772;50.158;8.658;2023-02-28T03:09:32;101537.47;;;-2.28;74.57
78483;BME280;67772;50.158;8.658;2023-02-28T03:11:58;101537.72;;;-2.31;74.96
78483;BME280;67772;50.158;8.658;2023-02-28T03:20:27;101534.59;;;-2.25;74.38
78483;BME280;67772;50.158;8.658;2023-02-28T03:25:39;101540.09;;;-2.28;74.35
78483;BME280;67772;50.158;8.658;2023-02-28T03:28:17;101532.31;;;-2.39;74.51
78483;BME280;67772;50.158;8.658;2023-02-28T03:30:51;101539.38;;;-2.30;74.63
78483;BME280;67772;50.158;8.658;2023-02-28T03:33:33;101530.41;;;-2.37;74.52
78483;BME280;67772;50.158;8.658;2023-02-28T03:36:08;101535.09;;;-2.31;74.58
78483;BME280;67772;50.158;8.658;2023-02-28T03:38:45;101532.91;;;-2.35;74.53
78483;BME280;67772;50.158;8.658;2023-02-28T03:41:20;101537.69;;;-2.40;74.93
78483;BME280;67772;50.158;8.658;2023-02-28T03:43:59;101534.94;;;-2.39;74.57
78483;BME280;67772;50.158;8.658;2023-02-28T03:46:31;101533.72;;;-2.35;74.68
78483;BME280;67772;50.158;8.658;2023-02-28T03:49:05;101534.94;;;-2.39;74.18
78483;BME280;67772;50.158;8.658;2023-02-28T03:51:33;101530.81;;;-2.41;74.79
78483;BME280;67772;50.158;8.658;2023-02-28T03:54:06;101535.22;;;-2.42;75.27
78483;BME280;67772;50.158;8.658;2023-02-28T03:56:50;101538.38;;;-2.38;75.24
78483;BME280;67772;50.158;8.658;2023-02-28T03:59:19;101536.88;;;-2.41;75.14
78483;BME280;67772;50.158;8.658;2023-02-28T04:01:48;101533.69;;;-2.44;75.21
78483;BME280;67772;50.158;8.658;2023-02-28T04:04:15;101541.94;;;-2.49;75.74
78483;BME280;67772;50.158;8.658;2023-02-28T04:06:41;101546.31;;;-2.49;75.99
78483;BME280;67772;50.158;8.658;2023-02-28T04:09:09;101544.41;;;-2.47;76.56
78483;BME280;67772;50.158;8.658;2023-02-28T04:11:37;101551.06;;;-2.34;76.12
78483;BME280;67772;50.158;8.658;2023-02-28T04:14:05;101545.97;;;-2.35;76.19
78483;BME280;67772;50.158;8.658;2023-02-28T04:16:31;101543.91;;;-2.32;75.87
78483;BME280;67772;50.158;8.658;2023-02-28T04:18:57;101545.00;;;-2.34;75.73
78483;BME280;67772;50.158;8.658;2023-02-28T04:21:42;101539.50;;;-2.41;76.18
78483;BME280;67772;50.158;8.658;2023-02-28T04:24:27;101538.09;;;-2.45;76.41
78483;BME280;67772;50.158;8.658;2023-02-28T04:26:55;101547.34;;;-2.41;76.44
78483;BME280;67772;50.158;8.658;2023-02-28T04:29:23;101544.72;;;-2.41;76.07
78483;BME280;67772;50.158;8.658;2023-02-28T04:31:49;101541.66;;;-2.46;76.17
78483;BME280;67772;50.158;8.658;2023-02-28T04:34:14;101544.72;;;-2.41;76.58
78483;BME280;67772;50.158;8.658;2023-02-28T04:36:40;101546.09;;;-2.37;76.08
78483;BME280;67772;50.158;8.658;2023-02-28T04:39:05;101546.91;;;-2.36;76.29
78483;BME280;67772;50.158;8.658;2023-02-28T04:41:31;101546.25;;;-2.29;76.02
78483;BME280;67772;50.158;8.658;2023-02-28T04:43:56;101537.88;;;-2.23;75.73
78483;BME280;67772;50.158;8.658;2023-02-28T04:46:22;101546.69;;;-2.24;76.01
78483;BME280;67772;50.158;8.658;2023-02-28T04:48:47;101551.69;;;-2.11;75.35
78483;BME280;67772;50.158;8.658;2023-02-28T04:51:15;101543.72;;;-2.10;75.72
78483;BME280;67772;50.158;8.658;2023-02-28T04:53:41;101531.06;;;-2.05;75.16
78483;BME280;67772;50.158;8.658;2023-02-28T04:56:09;101534.41;;;-1.84;74.15
78483;BME280;67772;50.158;8.658;2023-02-28T04:58:36;101536.22;;;-1.84;73.74
78483;BME280;67772;50.158;8.658;2023-02-28T05:01:03;101536.06;;;-1.83;73.97
78483;BME280;67772;50.158;8.658;2023-02-28T05:03:29;101537.19;;;-1.75;73.67
78483;BME280;67772;50.158;8.658;2023-02-28T05:05:54;101540.78;;;-1.76;73.51
78483;BME280;67772;50.158;8.658;2023-02-28T05:08:19;101540.63;;;-1.75;73.75
78483;BME280;67772;50.158;8.658;2023-02-28T05:10:44;101543.25;;;-1.65;73.32
78483;BME280;67772;50.158;8.658;2023-02-28T05:13:12;101545.72;;;-1.54;72.74
78483;BME280;67772;50.158;8.658;2023-02-28T05:15:37;101546.00;;;-1.67;73.40
78483;BME280;67772;50.158;8.658;2023-02-28T05:18:03;101546.41;;;-1.62;73.05
78483;BME280;67772;50.158;8.658;2023-02-28T05:20:28;101545.31;;;-1.59;72.90
78483;BME280;67772;50.158;8.658;2023-02-28T05:22:53;101547.50;;;-1.64;73.07
78483;BME280;67772;50.158;8.658;2023-02-28T05:25:20;101554.41;;;-1.63;73.17
78483;BME280;67772;50.158;8.658;2023-02-28T05:27:47;101560.03;;;-1.58;73.05
78483;BME280;67772;50.158;8.658;2023-02-28T05:30:12;101552.34;;;-1.60;72.66
78483;BME280;67772;50.158;8.658;2023-02-28T05:32:38;101556.72;;;-1.60;73.33
78483;BME280;67772;50.158;8.658;2023-02-28T05:35:04;101552.88;;;-1.56;73.23
78483;BME280;67772;50.158;8.658;2023-02-28T05:37:30;101557.72;;;-1.52;73.02
78483;BME280;67772;50.158;8.658;2023-02-28T05:39:55;101557.31;;;-1.47;72.67
78483;BME280;67772;50.158;8.658;2023-02-28T05:42:20;101557.84;;;-1.53;72.75
78483;BME280;67772;50.158;8.658;2023-02-28T05:44:46;101553.44;;;-1.62;73.08
78483;BME280;67772;50.158;8.658;2023-02-28T05:47:11;101562.25;;;-1.63;72.75
78483;BME280;67772;50.158;8.658;2023-02-28T05:49:40;101567.31;;;-1.71;73.48
78483;BME280;67772;50.158;8.658;2023-02-28T05:52:05;101566.09;;;-1.67;73.69
78483;BME280;67772;50.158;8.658;2023-02-28T05:54:31;101571.34;;;-1.58;72.80
78483;BME280;67772;50.158;8.658;2023-02-28T05:56:56;101563.19;;;-1.74;72.82
78483;BME280;67772;50.158;8.658;2023-02-28T05:59:21;101559.19;;;-1.78;73.44
78483;BME280;67772;50.158;8.658;2023-02-28T06:01:46;101565.78;;;-1.84;73.18
78483;BME280;67772;50.158;8.658;2023-02-28T06:04:17;101558.38;;;-1.88;74.06
78483;BME280;67772;50.158;8.658;2023-02-28T06:06:48;101570.16;;;-1.94;73.66
78483;BME280;67772;50.158;8.658;2023-02-28T06:09:13;101568.00;;;-1.89;73.68
78483;BME280;67772;50.158;8.658;2023-02-28T06:11:39;101566.22;;;-1.88;73.32
78483;BME280;67772;50.158;8.658;2023-02-28T06:14:05;101568.56;;;-1.56;72.42
78483;BME280;67772;50.158;8.658;2023-02-28T06:16:32;101570.09;;;-1.63;72.11
78483;BME280;67772;50.158;8.658;2023-02-28T06:18:59;101570.63;;;-1.69;72.40
78483;BME280;67772;50.158;8.658;2023-02-28T06:21:25;101572.94;;;-1.76;72.39
78483;BME280;67772;50.158;8.658;2023-02-28T06:23:56;101570.50;;;-1.58;71.51
78483;BME280;67772;50.158;8.658;2023-02-28T06:26:21;101570.38;;;-1.66;71.27
78483;BME280;67772;50.158;8.658;2023-02-28T06:28:47;101572.56;;;-1.71;71.43
78483;BME280;67772;50.158;8.658;2023-02-28T06:31:17;101583.56;;;-1.77;71.11
78483;BME280;67772;50.158;8.658;2023-02-28T06:33:43;101579.88;;;-1.65;70.87
78483;BME280;67772;50.158;8.658;2023-02-28T06:36:09;101580.25;;;-1.70;70.95
78483;BME280;67772;50.158;8.658;2023-02-28T06:38:36;101591.56;;;-1.50;70.28
78483;BME280;67772;50.158;8.658;2023-02-28T06:41:02;101591.72;;;-1.61;70.31
78483;BME280;67772;50.158;8.658;2023-02-28T06:43:29;101587.31;;;-1.51;70.23
78483;BME280;67772;50.158;8.658;2023-02-28T06:45:56;101598.03;;;-1.54;70.32
78483;BME280;67772;50.158;8.658;2023-02-28T06:48:22;101600.66;;;-1.54;69.90
78483;BME280;67772;50.158;8.658;2023-02-28T06:50:47;101608.50;;;-1.54;69.84
78483;BME280;67772;50.158;8.658;2023-02-28T06:53:13;101599.16;;;-1.47;69.74
78483;BME280;67772;50.158;8.658;2023-02-28T06:55:39;101598.34;;;-1.29;69.02
78483;BME280;67772;50.158;8.658;2023-02-28T06:58:04;101607.72;;;-1.26;68.27
78483;BME280;67772;50.158;8.658;2023-02-28T07:00:43;101603.03;;;-1.23;68.04
78483;BME280;67772;50.158;8.658;2023-02-28T07:03:09;101606.88;;;-1.17;67.72
78483;BME280;67772;50.158;8.658;2023-02-28T07:05:35;101601.91;;;-0.92;66.68
78483;BME280;67772;50.158;8.658;2023-02-28T07:08:01;101613.34;;;-0.83;66.78
78483;BME280;67772;50.158;8.658;2023-02-28T07:10:36;101613.19;;;-0.72;66.37
78483;BME280;67772;50.158;8.658;2023-02-28T07:13:24;101613.31;;;-0.64;65.87
78483;BME280;67772;50.158;8.658;2023-02-28T07:15:59;101610.16;;;-0.58;66.13
78483;BME280;67772;50.158;8.658;2023-02-28T07:18:25;101626.06;;;-0.32;64.98
78483;BME280;67772;50.158;8.658;2023-02-28T07:20:52;101616.72;;;-0.08;64.20
78483;BME280;67772;50.158;8.658;2023-02-28T07:23:17;101620.66;;;0.16;63.46
78483;BME280;67772;50.158;8.658;2023-02-28T07:25:43;101619.59;;;0.53;62.38
78483;BME280;67772;50.158;8.658;2023-02-28T07:28:09;101622.69;;;1.70;58.23
78483;BME280;67772;50.158;8.658;2023-02-28T07:30:34;101611.84;;;2.49;55.44
78483;BME280;67772;50.158;8.658;2023-02-28T07:32:59;101610.25;;;2.80;54.73
78483;BME280;67772;50.158;8.658;2023-02-28T07:35:25;101613.41;;;3.16;52.71
78483;BME280;67772;50.158;8.658;2023-02-28T07:37:50;101616.69;;;3.34;52.31
78483;BME280;67772;50.158;8.658;2023-02-28T07:40:16;101613.56;;;3.22;52.58
78483;BME280;67772;50.158;8.658;2023-02-28T07:42:43;101610.22;;;3.60;51.65
78483;BME280;67772;50.158;8.658;2023-02-28T07:45:09;101609.91;;;3.55;51.80
78483;BME280;67772;50.158;8.658;2023-02-28T07:47:40;101605.47;;;3.64;50.85
78483;BME280;67772;50.158;8.658;2023-02-28T07:50:08;101615.09;;;3.88;50.63
78483;BME280;67772;50.158;8.658;2023-02-28T07:52:36;101613.28;;;4.27;49.56
78483;BME280;67772;50.158;8.658;2023-02-28T07:55:01;101616.59;;;4.29;49.19
78483;BME280;67772;50.158;8.658;2023-02-28T07:57:27;101614.63;;;4.62;48.36
78483;BME280;67772;50.158;8.658;2023-02-28T07:59:52;101619.16;;;4.98;46.79
78483;BME280;67772;50.158;8.658;2023-02-28T08:02:18;101609.69;;;5.26;46.52
78483;BME280;67772;50.158;8.658;2023-02-28T08:04:44;101615.66;;;5.58;45.30
78483;BME280;67772;50.158;8.658;2023-02-28T08:07:09;101615.31;;;6.19;42.99
78483;BME280;67772;50.158;8.658;2023-02-28T08:09:38;101616.31;;;6.68;42.52
78483;BME280;67772;50.158;8.658;2023-02-28T08:12:06;101610.53;;;7.49;39.44
78483;BME280;67772;50.158;8.658;2023-02-28T08:14:32;101610.53;;;8.58;37.37
78483;BME280;67772;50.158;8.658;2023-02-28T08:16:57;101610.22;;;9.46;34.78
78483;BME280;67772;50.158;8.658;2023-02-28T08:19:23;101612.78;;;10.62;31.80
78483;BME280;67772;50.158;8.658;2023-02-28T08:21:48;101605.91;;;11.11;31.19
78483;BME280;67772;50.158;8.658;2023-02-28T08:24:13;101615.56;;;11.36;30.82
78483;BME280;67772;50.158;8.658;2023-02-28T08:26:38;101609.91;;;11.51;29.68
78483;BME280;67772;50.158;8.658;2023-02-28T08:29:04;101614.00;;;11.29;30.53
78483;BME280;67772;50.158;8.658;2023-02-28T08:31:29;101606.13;;;11.58;29.53
78483;BME280;67772;50.158;8.658;2023-02-28T08:33:54;101613.88;;;12.87;27.70
78483;BME280;67772;50.158;8.658;2023-02-28T08:36:23;101611.47;;;13.96;25.83
78483;BME280;67772;50.158;8.658;2023-02-28T08:38:49;101606.16;;;14.64;23.68
78483;BME280;67772;50.158;8.658;2023-02-28T08:41:14;101607.53;;;16.59;20.89
78483;BME280;67772;50.158;8.658;2023-02-28T08:43:40;101613.03;;;16.47;20.64
78483;BME280;67772;50.158;8.658;2023-02-28T08:46:06;101603.88;;;18.79;18.34
78483;BME280;67772;50.158;8.658;2023-02-28T08:48:34;101610.97;;;19.45;17.33
78483;BME280;67772;50.158;8.658;2023-02-28T08:51:05;101603.63;;;18.95;17.52
78483;BME280;67772;50.158;8.658;2023-02-28T08:53:31;101601.78;;;21.28;15.39
78483;BME280;67772;50.158;8.658;2023-02-28T08:55:58;101605.25;;;21.90;14.59
78483;BME280;67772;50.158;8.658;2023-02-28T08:58:23;101610.56;;;21.15;15.07
78483;BME280;67772;50.158;8.658;2023-02-28T09:00:50;101602.91;;;22.26;14.38
78483;BME280;67772;50.158;8.658;2023-02-28T09:03:15;101606.94;;;20.42;15.23
78483;BME280;67772;50.158;8.658;2023-02-28T09:05:40;101604.84;;;22.02;13.58
78483;BME280;67772;50.158;8.658;2023-02-28T09:08:05;101609.38;;;20.87;15.11
78483;BME280;67772;50.158;8.658;2023-02-28T09:10:31;101602.03;;;22.73;13.29
78483;BME280;67772;50.158;8.658;2023-02-28T09:12:56;101610.09;;;21.65;14.01
78483;BME280;67772;50.158;8.658;2023-02-28T09:15:21;101597.03;;;23.63;12.81
78483;BME280;67772;50.158;8.658;2023-02-28T09:17:47;101613.22;;;21.53;13.72
78483;BME280;67772;50.158;8.658;2023-02-28T09:20:12;101621.28;;;20.42;14.52
78483;BME280;67772;50.158;8.658;2023-02-28T09:22:38;101612.34;;;20.85;14.66
78483;BME280;67772;50.158;8.658;2023-02-28T09:25:04;101596.91;;;22.06;13.87
78483;BME280;67772;50.158;8.658;2023-02-28T09:27:29;101609.88;;;21.61;13.84
78483;BME280;67772;50.158;8.658;2023-02-28T09:29:54;101595.13;;;20.71;14.52
78483;BME280;67772;50.158;8.658;2023-02-28T09:32:19;101583.63;;;22.83;12.88
78483;BME280;67772;50.158;8.658;2023-02-28T09:34:45;101597.53;;;22.63;12.74
78483;BME280;67772;50.158;8.658;2023-02-28T09:37:10;101598.66;;;20.62;14.85
78483;BME280;67772;50.158;8.658;2023-02-28T09:39:35;101595.56;;;22.27;13.05
78483;BME280;67772;50.158;8.658;2023-02-28T09:42:02;101597.84;;;20.66;14.17
78483;BME280;67772;50.158;8.658;2023-02-28T09:46:57;101605.09;;;20.27;14.75
78483;BME280;67772;50.158;8.658;2023-02-28T09:49:31;101593.72;;;21.75;13.61
78483;BME280;67772;50.158;8.658;2023-02-28T09:52:09;101591.50;;;23.36;12.28
78483;BME280;67772;50.158;8.658;2023-02-28T09:54:36;101580.41;;;24.05;11.65
78483;BME280;67772;50.158;8.658;2023-02-28T09:57:17;101582.56;;;24.44;11.58
78483;BME280;67772;50.158;8.658;2023-02-28T10:05:19;101621.66;;;17.24;16.92
78483;BME280;67772;50.158;8.658;2023-02-28T10:10:45;101592.81;;;19.61;15.67
78483;BME280;67772;50.158;8.658;2023-02-28T10:13:21;101604.69;;;17.29;16.89
78483;BME280;67772;50.158;8.658;2023-02-28T10:15:52;101610.72;;;16.13;18.73
78483;BME280;67772;50.158;8.658;2023-02-28T10:18:46;101627.50;;;14.70;19.98
78483;BME280;67772;50.158;8.658;2023-02-28T10:21:22;101638.97;;;12.44;22.74
78483;BME280;67772;50.158;8.658;2023-02-28T10:23:53;101638.72;;;10.49;25.71
78483;BME280;67772;50.158;8.658;2023-02-28T10:26:26;101635.06;;;10.43;25.78
78483;BME280;67772;50.158;8.658;2023-02-28T10:28:53;101631.53;;;9.40;27.39
78483;BME280;67772;50.158;8.658;2023-02-28T10:31:19;101625.38;;;9.72;27.20
78483;BME280;67772;50.158;8.658;2023-02-28T10:33:45;101618.00;;;9.35;27.93
78483;BME280;67772;50.158;8.658;2023-02-28T10:36:15;101607.34;;;9.48;28.05
78483;BME280;67772;50.158;8.658;2023-02-28T10:38:42;101599.50;;;9.92;26.96
78483;BME280;67772;50.158;8.658;2023-02-28T10:41:14;101595.53;;;10.27;26.77
78483;BME280;67772;50.158;8.658;2023-02-28T10:43:41;101595.28;;;11.29;25.35
78483;BME280;67772;50.158;8.658;2023-02-28T10:51:24;101578.00;;;20.17;15.59
78483;BME280;67772;50.158;8.658;2023-02-28T10:53:51;101573.81;;;20.50;14.61
78483;BME280;67772;50.158;8.658;2023-02-28T10:56:19;101574.25;;;22.57;13.33
78483;BME280;67772;50.158;8.658;2023-02-28T11:03:57;101584.72;;;19.30;15.94
78483;BME280;67772;50.158;8.658;2023-02-28T11:06:31;101583.88;;;18.75;15.83
78483;BME280;67772;50.158;8.658;2023-02-28T11:09:04;101568.25;;;21.94;13.73
78483;BME280;67772;50.158;8.658;2023-02-28T11:11:44;101565.69;;;23.15;12.63
78483;BME280;67772;50.158;8.658;2023-02-28T11:14:22;101555.00;;;25.34;11.42
78483;BME280;67772;50.158;8.658;2023-02-28T11:16:49;101554.91;;;25.17;10.61
78483;BME280;67772;50.158;8.658;2023-02-28T11:19:32;101544.41;;;27.22;9.49
78483;BME280;67772;50.158;8.658;2023-02-28T11:22:02;101536.09;;;28.23;9.14
78483;BME280;67772;50.158;8.658;2023-02-28T11:24:33;101542.66;;;28.31;8.85
78483;BME280;67772;50.158;8.658;2023-02-28T11:27:00;101535.03;;;28.36;9.11
78483;BME280;67772;50.158;8.658;2023-02-28T11:29:28;101544.00;;;27.66;8.85
78483;BME280;67772;50.158;8.658;2023-02-28T11:34:31;101549.72;;;28.61;9.01
78483;BME280;67772;50.158;8.658;2023-02-28T11:36:59;101544.03;;;29.19;8.59
78483;BME280;67772;50.158;8.658;2023-02-28T11:39:26;101556.66;;;24.91;10.33
78483;BME280;67772;50.158;8.658;2023-02-28T11:50:20;101553.03;;;22.92;12.21
78483;BME280;67772;50.158;8.658;2023-02-28T11:52:54;101550.94;;;24.56;11.00
78483;BME280;67772;50.158;8.658;2023-02-28T12:01:05;101537.59;;;25.91;10.71
78483;BME280;67772;50.158;8.658;2023-02-28T12:06:28;101538.09;;;25.93;9.90
78483;BME280;67772;50.158;8.658;2023-02-28T12:09:20;101551.03;;;24.02;11.59
78483;BME280;67772;50.158;8.658;2023-02-28T12:17:51;101556.47;;;21.75;13.20
78483;BME280;67772;50.158;8.658;2023-02-28T12:20:46;101542.94;;;24.11;11.54
78483;BME280;67772;50.158;8.658;2023-02-28T12:26:16;101529.22;;;25.40;10.89
78483;BME280;67772;50.158;8.658;2023-02-28T12:28:49;101532.00;;;26.05;9.70
78483;BME280;67772;50.158;8.658;2023-02-28T12:31:29;101526.25;;;26.15;10.32
78483;BME280;67772;50.158;8.658;2023-02-28T12:34:00;101539.34;;;25.17;10.72
78483;BME280;67772;50.158;8.658;2023-02-28T12:36:28;101524.84;;;24.86;11.08
78483;BME280;67772;50.158;8.658;2023-02-28T12:39:00;101529.50;;;26.25;10.20
78483;BME280;67772;50.158;8.658;2023-02-28T12:43:57;101541.81;;;22.00;12.89
78483;BME280;67772;50.158;8.658;2023-02-28T12:46:27;101543.41;;;20.58;14.01
78483;BME280;67772;50.158;8.658;2023-02-28T12:49:02;101548.44;;;19.52;14.75
78483;BME280;67772;50.158;8.658;2023-02-28T12:51:31;101543.84;;;18.62;16.07
78483;BME280;67772;50.158;8.658;2023-02-28T12:54:37;101555.09;;;17.35;17.45
78483;BME280;67772;50.158;8.658;2023-02-28T12:59:41;101550.69;;;17.19;17.42
78483;BME280;67772;50.158;8.658;2023-02-28T13:05:19;101538.97;;;16.71;18.20
78483;BME280;67772;50.158;8.658;2023-02-28T13:08:13;101537.28;;;15.74;19.20
78483;BME280;67772;50.158;8.658;2023-02-28T13:10:46;101539.78;;;14.76;20.69
78483;BME280;67772;50.158;8.658;2023-02-28T13:13:18;101544.50;;;14.41;20.93
78483;BME280;67772;50.158;8.658;2023-02-28T13:18:45;101546.47;;;12.49;23.21
78483;BME280;67772;50.158;8.658;2023-02-28T13:21:28;101526.56;;;11.97;23.89
78483;BME280;67772;50.158;8.658;2023-02-28T13:24:04;101526.56;;;11.97;24.99
78483;BME280;67772;50.158;8.658;2023-02-28T13:29:00;101513.13;;;11.49;26.42
78483;BME280;67772;50.158;8.658;2023-02-28T13:31:27;101517.63;;;11.06;25.70
78483;BME280;67772;50.158;8.658;2023-02-28T13:36:29;101506.84;;;10.32;26.93
78483;BME280;67772;50.158;8.658;2023-02-28T13:38:57;101513.41;;;9.85;26.60
78483;BME280;67772;50.158;8.658;2023-02-28T13:44:07;101515.22;;;9.01;28.85
78483;BME280;67772;50.158;8.658;2023-02-28T13:46:36;101513.19;;;9.10;29.94
78483;BME280;67772;50.158;8.658;2023-02-28T13:49:31;101503.88;;;9.58;29.21
78483;BME280;67772;50.158;8.658;2023-02-28T14:03:01;101507.44;;;9.26;30.13
78483;BME280;67772;50.158;8.658;2023-02-28T14:05:32;101509.06;;;9.27;29.91
78483;BME280;67772;50.158;8.658;2023-02-28T14:08:04;101508.22;;;9.26;30.16
78483;BME280;67772;50.158;8.658;2023-02-28T14:10:35;101500.25;;;9.33;30.03
78483;BME280;67772;50.158;8.658;2023-02-28T14:13:13;101498.84;;;9.24;30.07
78483;BME280;67772;50.158;8.658;2023-02-28T14:21:08;101507.03;;;9.09;30.15
78483;BME280;67772;50.158;8.658;2023-02-28T14:23:55;101493.50;;;8.71;30.61
78483;BME280;67772;50.158;8.658;2023-02-28T14:34:58;101486.13;;;8.54;31.04
78483;BME280;67772;50.158;8.658;2023-02-28T14:37:30;101491.03;;;8.50;31.23
78483;BME280;67772;50.158;8.658;2023-02-28T14:39:58;101489.19;;;8.31;31.73
78483;BME280;67772;50.158;8.658;2023-02-28T14:42:34;101478.56;;;8.44;31.56
78483;BME280;67772;50.158;8.658;2023-02-28T14:45:01;101484.78;;;8.11;31.95
78483;BME280;67772;50.158;8.658;2023-02-28T14:47:30;101483.66;;;8.26;32.55
78483;BME280;67772;50.158;8.658;2023-02-28T14:49:56;101471.00;;;8.41;32.51
78483;BME280;67772;50.158;8.658;2023-02-28T14:52:24;101485.31;;;8.34;32.41
78483;BME280;67772;50.158;8.658;2023-02-28T14:55:03;101489.38;;;8.36;31.70
78483;BME280;67772;50.158;8.658;2023-02-28T14:57:39;101493.38;;;8.06;31.69
78483;BME280;67772;50.158;8.658;2023-02-28T15:00:16;101483.16;;;8.10;31.23
78483;BME280;67772;50.158;8.658;2023-02-28T15:02:42;101479.13;;;7.66;33.12